createdAt,value
2019-03-17T00:00:21.915Z,10.10
2019-03-17T00:02:51.084Z,10.10
2019-03-17T00:05:20.318Z,10.20
2019-03-17T00:07:49.463Z,10.30
2019-03-17T00:10:18.638Z,10.40
2019-03-17T00:12:47.789Z,10.50
2019-03-17T00:15:16.983Z,10.60
2019-03-17T00:17:46.224Z,10.70
2019-03-17T00:20:15.421Z,10.70
2019-03-17T00:22:44.747Z,10.70
2019-03-17T00:25:14.125Z,10.50
2019-03-17T00:27:43.405Z,10.30
2019-03-17T00:30:12.675Z,10.10
2019-03-17T00:32:41.927Z,9.90
2019-03-17T00:35:12.317Z,9.80
2019-03-17T00:37:41.677Z,9.80
2019-03-17T00:40:12.574Z,9.70
2019-03-17T00:42:43.380Z,9.60
2019-03-17T00:45:12.666Z,9.60
2019-03-17T00:47:42.173Z,9.50
2019-03-17T00:50:12.022Z,9.50
2019-03-17T00:52:42.461Z,9.40
2019-03-17T00:55:11.660Z,9.40
2019-03-17T00:57:40.873Z,9.30
2019-03-17T01:00:15.189Z,9.20
2019-03-17T01:02:44.462Z,9.20
2019-03-17T01:05:13.751Z,9.10
2019-03-17T01:07:45.066Z,9.10
2019-03-17T01:10:14.304Z,9.10
2019-03-17T01:12:44.863Z,9.00
2019-03-17T01:15:14.409Z,9.00
2019-03-17T01:17:43.621Z,8.90
2019-03-17T01:20:14.397Z,8.80
2019-03-17T01:22:43.553Z,8.80
2019-03-17T01:25:12.709Z,8.70
2019-03-17T01:27:41.849Z,8.60
2019-03-17T01:30:12.210Z,8.50
2019-03-17T01:32:41.382Z,8.50
2019-03-17T01:35:10.538Z,8.50
2019-03-17T01:37:39.690Z,8.40
2019-03-17T01:40:10.036Z,8.30
2019-03-17T01:42:39.224Z,8.30
2019-03-17T01:45:09.492Z,8.30
2019-03-17T01:47:38.682Z,8.20
2019-03-17T01:50:08.692Z,8.20
2019-03-17T01:52:37.854Z,8.10
2019-03-17T01:55:07.464Z,8.10
2019-03-17T01:57:36.680Z,8.00
2019-03-17T02:00:08.814Z,7.90
2019-03-17T02:02:37.961Z,7.90
2019-03-17T02:05:07.203Z,7.80
2019-03-17T02:07:36.358Z,7.80
2019-03-17T02:10:06.544Z,7.70
2019-03-17T02:12:35.740Z,7.60
2019-03-17T02:15:06.908Z,7.60
2019-03-17T02:17:37.016Z,7.50
2019-03-17T02:20:08.844Z,7.50
2019-03-17T02:22:38.013Z,7.40
2019-03-17T02:25:07.223Z,7.40
2019-03-17T02:27:36.444Z,7.40
2019-03-17T02:30:08.956Z,7.40
2019-03-17T02:32:38.157Z,7.30
2019-03-17T02:35:07.367Z,7.30
2019-03-17T02:37:36.553Z,7.20
2019-03-17T02:40:06.570Z,7.20
2019-03-17T02:42:35.793Z,7.10
2019-03-17T02:45:07.907Z,7.10
2019-03-17T02:47:37.318Z,7.10
2019-03-17T02:50:08.214Z,7.00
2019-03-17T02:52:38.506Z,7.10
2019-03-17T02:55:09.183Z,7.00
2019-03-17T02:57:38.481Z,7.00
2019-03-17T03:00:10.041Z,7.00
2019-03-17T03:02:39.257Z,7.00
2019-03-17T03:05:08.990Z,6.90
2019-03-17T03:07:38.295Z,6.90
2019-03-17T03:10:07.736Z,7.00
2019-03-17T03:12:37.078Z,7.00
2019-03-17T03:15:08.776Z,7.00
2019-03-17T03:17:41.080Z,7.00
2019-03-17T03:20:10.393Z,7.00
2019-03-17T03:22:41.224Z,7.00
2019-03-17T03:25:10.771Z,6.90
2019-03-17T03:27:40.093Z,6.90
2019-03-17T03:30:11.877Z,6.90
2019-03-17T03:32:41.166Z,6.90
2019-03-17T03:35:10.468Z,6.90
2019-03-17T03:37:39.819Z,6.80
2019-03-17T03:40:10.744Z,6.80
2019-03-17T03:42:40.044Z,6.80
2019-03-17T03:45:11.680Z,6.80
2019-03-17T03:47:41.897Z,6.80
2019-03-17T03:50:11.784Z,6.80
2019-03-17T03:52:41.022Z,6.70
2019-03-17T03:55:10.199Z,6.80
2019-03-17T03:57:39.449Z,6.70
2019-03-17T04:00:13.766Z,6.70
2019-03-17T04:02:43.228Z,6.80
2019-03-17T04:05:12.399Z,6.70
2019-03-17T04:07:41.617Z,6.70
2019-03-17T04:10:11.295Z,6.70
2019-03-17T04:12:40.481Z,6.60
2019-03-17T04:15:11.136Z,6.60
2019-03-17T04:17:40.292Z,6.60
2019-03-17T04:20:10.793Z,6.50
2019-03-17T04:22:39.958Z,6.50
2019-03-17T04:25:09.101Z,6.40
2019-03-17T04:27:38.311Z,6.40
2019-03-17T04:30:09.817Z,6.40
2019-03-17T04:32:39.063Z,6.40
2019-03-17T04:35:08.249Z,6.40
2019-03-17T04:37:37.434Z,6.40
2019-03-17T04:40:08.180Z,6.30
2019-03-17T04:42:37.364Z,6.30
2019-03-17T04:45:07.367Z,6.40
2019-03-17T04:47:36.668Z,6.40
2019-03-17T04:50:07.308Z,6.40
2019-03-17T04:52:36.460Z,6.30
2019-03-17T04:55:06.462Z,6.30
2019-03-17T04:57:35.615Z,6.30
2019-03-17T05:00:10.547Z,6.30
2019-03-17T05:02:39.752Z,6.30
2019-03-17T05:05:08.932Z,6.30
2019-03-17T05:07:38.196Z,6.30
2019-03-17T05:10:09.780Z,6.30
2019-03-17T05:12:38.940Z,6.40
2019-03-17T05:15:10.268Z,6.40
2019-03-17T05:17:40.495Z,6.40
2019-03-17T05:20:11.432Z,6.40
2019-03-17T05:22:40.679Z,6.40
2019-03-17T05:25:09.901Z,6.40
2019-03-17T05:27:39.136Z,6.40
2019-03-17T05:30:10.232Z,6.40
2019-03-17T05:32:39.415Z,6.50
2019-03-17T05:35:09.004Z,6.50
2019-03-17T05:37:38.243Z,6.60
2019-03-17T05:40:09.236Z,6.70
2019-03-17T05:42:40.745Z,6.80
2019-03-17T05:45:09.249Z,6.90
2019-03-17T05:47:38.428Z,7.00
2019-03-17T05:50:08.913Z,7.10
2019-03-17T05:52:38.152Z,7.30
2019-03-17T05:55:09.020Z,7.50
2019-03-17T05:57:39.213Z,7.70
2019-03-17T06:00:11.775Z,7.80
2019-03-17T06:02:40.943Z,8.00
2019-03-17T06:05:10.167Z,8.10
2019-03-17T06:07:39.384Z,8.20
2019-03-17T06:10:08.638Z,8.30
2019-03-17T06:12:38.925Z,8.50
2019-03-17T06:15:11.230Z,8.60
2019-03-17T06:17:40.461Z,8.70
2019-03-17T06:20:12.033Z,8.80
2019-03-17T06:22:41.277Z,8.90
2019-03-17T06:25:10.461Z,9.10
2019-03-17T06:27:39.759Z,9.20
2019-03-17T06:30:13.454Z,9.30
2019-03-17T06:32:42.696Z,9.30
2019-03-17T06:35:11.878Z,9.40
2019-03-17T06:37:41.194Z,9.40
2019-03-17T06:40:15.042Z,9.40
2019-03-17T06:42:44.231Z,9.50
2019-03-17T06:45:13.673Z,9.60
2019-03-17T06:47:43.304Z,9.70
2019-03-17T06:50:14.107Z,9.80
2019-03-17T06:52:43.378Z,9.90
2019-03-17T06:55:15.202Z,10.00
2019-03-17T06:57:44.783Z,10.20
2019-03-17T07:00:15.140Z,10.30
2019-03-17T07:02:44.468Z,10.50
2019-03-17T07:05:13.885Z,10.60
2019-03-17T07:07:44.596Z,10.70
2019-03-17T07:10:14.237Z,10.80
2019-03-17T07:12:43.551Z,10.90
2019-03-17T07:15:12.778Z,10.90
2019-03-17T07:17:42.126Z,11.10
2019-03-17T07:20:12.850Z,11.20
2019-03-17T07:22:42.154Z,11.30
2019-03-17T07:25:11.555Z,11.50
2019-03-17T07:27:40.725Z,11.60
2019-03-17T07:30:12.611Z,11.60
2019-03-17T07:32:41.917Z,11.70
2019-03-17T07:35:11.078Z,11.70
2019-03-17T07:37:40.316Z,11.70
2019-03-17T07:40:12.934Z,11.80
2019-03-17T07:42:42.136Z,11.80
2019-03-17T07:45:11.971Z,11.90
2019-03-17T07:47:41.222Z,12.00
2019-03-17T07:50:14.350Z,12.20
2019-03-17T07:52:43.023Z,12.40
2019-03-17T07:55:12.159Z,12.70
2019-03-17T07:57:41.446Z,12.90
2019-03-17T08:00:14.269Z,13.10
2019-03-17T08:02:43.635Z,13.40
2019-03-17T08:05:12.859Z,13.60
2019-03-17T08:07:42.097Z,13.80
2019-03-17T08:10:17.410Z,14.10
2019-03-17T08:12:46.587Z,14.30
2019-03-17T08:15:15.745Z,14.60
2019-03-17T08:17:44.960Z,14.70
2019-03-17T08:20:14.427Z,14.80
2019-03-17T08:22:43.574Z,15.00
2019-03-17T08:25:12.796Z,15.20
2019-03-17T08:27:41.966Z,15.60
2019-03-17T08:30:15.543Z,15.80
2019-03-17T08:32:44.739Z,16.10
2019-03-17T08:35:13.959Z,16.40
2019-03-17T08:37:43.172Z,16.90
2019-03-17T08:40:16.398Z,17.50
2019-03-17T08:42:45.554Z,18.50
2019-03-17T08:45:14.988Z,19.90
2019-03-17T08:47:56.678Z,20.70
2019-03-17T08:50:15.398Z,20.80
2019-03-17T08:52:44.706Z,21.20
2019-03-17T08:55:13.904Z,20.30
2019-03-17T08:57:43.076Z,19.20
2019-03-17T09:00:17.505Z,18.50
2019-03-17T09:02:46.764Z,19.20
2019-03-17T09:05:15.961Z,20.20
2019-03-17T09:07:45.163Z,21.20
2019-03-17T09:10:15.262Z,22.50
2019-03-17T09:12:44.485Z,22.30
2019-03-17T09:15:13.748Z,22.10
2019-03-17T09:17:43.076Z,21.70
2019-03-17T09:20:13.573Z,21.80
2019-03-17T09:22:42.846Z,22.10
2019-03-17T09:25:12.211Z,23.00
2019-03-17T09:27:41.438Z,22.70
2019-03-17T09:30:15.279Z,22.50
2019-03-17T09:32:44.514Z,22.80
2019-03-17T09:35:13.866Z,23.00
2019-03-17T09:37:44.518Z,23.40
2019-03-17T09:40:16.037Z,23.20
2019-03-17T09:42:45.247Z,23.00
2019-03-17T09:45:15.209Z,23.70
2019-03-17T09:47:44.403Z,24.30
2019-03-17T09:50:17.198Z,24.70
2019-03-17T09:52:46.398Z,25.60
2019-03-17T09:55:15.595Z,25.60
2019-03-17T09:57:44.956Z,25.00
2019-03-17T10:00:18.383Z,24.70
2019-03-17T10:02:47.618Z,25.10
2019-03-17T10:05:16.867Z,26.50
2019-03-17T10:07:46.165Z,26.80
2019-03-17T10:10:23.353Z,26.10
2019-03-17T10:12:52.861Z,25.60
2019-03-17T10:15:23.266Z,26.20
2019-03-17T10:17:52.680Z,26.80
2019-03-17T10:20:22.146Z,27.50
2019-03-17T10:22:51.701Z,28.20
2019-03-17T10:25:21.734Z,29.40
2019-03-17T10:27:51.392Z,29.10
2019-03-17T10:30:24.685Z,27.90
2019-03-17T10:32:54.846Z,26.90
2019-03-17T10:35:24.245Z,26.70
2019-03-17T10:37:53.591Z,26.40
2019-03-17T10:40:23.178Z,27.50
2019-03-17T10:42:52.484Z,27.50
2019-03-17T10:45:21.832Z,28.60
2019-03-17T10:47:51.053Z,29.70
2019-03-17T10:50:23.912Z,30.50
2019-03-17T10:52:53.242Z,30.50
2019-03-17T10:55:22.540Z,29.60
2019-03-17T10:57:51.944Z,29.50
2019-03-17T11:00:22.296Z,28.30
2019-03-17T11:02:51.542Z,28.80
2019-03-17T11:05:20.944Z,29.90
2019-03-17T11:07:50.338Z,30.90
2019-03-17T11:10:19.812Z,31.90
2019-03-17T11:12:49.052Z,31.70
2019-03-17T11:15:20.728Z,31.10
2019-03-17T11:17:49.972Z,30.60
2019-03-17T11:20:19.682Z,30.30
2019-03-17T11:22:50.552Z,31.20
2019-03-17T11:25:20.241Z,31.40
2019-03-17T11:27:49.439Z,30.60
2019-03-17T11:30:23.847Z,30.20
2019-03-17T11:32:53.285Z,30.30
2019-03-17T11:35:22.513Z,30.10
2019-03-17T11:37:51.841Z,29.00
2019-03-17T11:40:21.534Z,27.90
2019-03-17T11:42:50.796Z,28.30
2019-03-17T11:45:20.022Z,29.20
2019-03-17T11:47:49.222Z,29.70
2019-03-17T11:50:19.632Z,30.60
2019-03-17T11:52:48.946Z,30.10
2019-03-17T11:55:18.123Z,29.80
2019-03-17T11:57:47.457Z,29.80
2019-03-17T12:00:21.570Z,28.80
2019-03-17T12:02:50.846Z,28.30
2019-03-17T12:05:20.058Z,28.90
2019-03-17T12:07:49.288Z,28.70
2019-03-17T12:10:20.704Z,29.00
2019-03-17T12:12:49.934Z,29.50
2019-03-17T12:15:20.404Z,30.00
2019-03-17T12:17:49.645Z,30.20
2019-03-17T12:20:19.092Z,30.00
2019-03-17T12:22:48.291Z,29.40
2019-03-17T12:25:18.450Z,28.90
2019-03-17T12:27:47.681Z,28.50
2019-03-17T12:30:29.005Z,28.60
2019-03-17T12:32:58.171Z,29.40
2019-03-17T12:35:27.421Z,30.40
2019-03-17T12:37:56.893Z,31.60
2019-03-17T12:40:26.283Z,32.80
2019-03-17T12:42:55.499Z,31.20
2019-03-17T12:45:24.775Z,30.60
2019-03-17T12:47:54.102Z,31.40
2019-03-17T12:50:26.033Z,32.40
2019-03-17T12:52:55.263Z,33.30
2019-03-17T12:55:24.512Z,33.00
2019-03-17T12:57:53.779Z,31.30
2019-03-17T13:00:26.990Z,31.00
2019-03-17T13:02:57.937Z,30.50
2019-03-17T13:05:27.183Z,29.80
2019-03-17T13:07:56.548Z,29.90
2019-03-17T13:10:25.825Z,31.50
2019-03-17T13:12:55.067Z,31.50
2019-03-17T13:15:24.295Z,31.20
2019-03-17T13:17:53.497Z,30.50
2019-03-17T13:20:22.664Z,30.60
2019-03-17T13:22:52.045Z,30.30
2019-03-17T13:25:21.583Z,30.60
2019-03-17T13:27:54.090Z,30.70
2019-03-17T13:30:23.259Z,30.80
2019-03-17T13:32:52.498Z,30.20
2019-03-17T13:35:21.797Z,30.30
2019-03-17T13:37:51.500Z,30.70
2019-03-17T13:40:29.436Z,31.00
2019-03-17T13:42:52.189Z,30.00
2019-03-17T13:45:21.566Z,29.40
2019-03-17T13:47:53.048Z,29.00
2019-03-17T13:50:23.099Z,29.20
2019-03-17T13:52:52.487Z,28.90
2019-03-17T13:55:21.805Z,29.00
2019-03-17T13:58:05.520Z,29.00
2019-03-17T14:00:34.724Z,29.00
2019-03-17T14:03:04.017Z,29.30
2019-03-17T14:05:33.257Z,28.60
2019-03-17T14:08:02.427Z,27.40
2019-03-17T14:10:40.838Z,26.80
2019-03-17T14:13:03.543Z,26.30
2019-03-17T14:15:33.334Z,25.70
2019-03-17T14:18:02.743Z,25.50
2019-03-17T14:20:32.016Z,25.20
2019-03-17T14:23:01.204Z,25.40
2019-03-17T14:25:34.121Z,24.70
2019-03-17T14:28:03.410Z,24.70
2019-03-17T14:30:32.719Z,24.00
2019-03-17T14:33:01.902Z,23.90
2019-03-17T14:35:31.200Z,24.00
2019-03-17T14:38:00.465Z,24.40
2019-03-17T14:40:29.854Z,23.90
2019-03-17T14:42:59.460Z,23.50
2019-03-17T14:45:28.758Z,23.50
2019-03-17T14:47:59.551Z,23.50
2019-03-17T14:50:29.031Z,22.60
2019-03-17T14:53:00.691Z,21.80
2019-03-17T14:55:29.639Z,20.50
2019-03-17T14:57:59.103Z,19.70
2019-03-17T15:00:29.512Z,19.30
2019-03-17T15:02:58.905Z,19.10
2019-03-17T15:05:28.382Z,18.80
2019-03-17T15:07:57.684Z,18.60
2019-03-17T15:10:26.933Z,18.50
2019-03-17T15:12:56.201Z,18.30
2019-03-17T15:15:25.418Z,18.10
2019-03-17T15:17:54.594Z,17.90
2019-03-17T15:20:24.918Z,17.70
2019-03-17T15:22:55.043Z,17.70
2019-03-17T15:25:24.224Z,17.60
2019-03-17T15:27:53.480Z,17.60
2019-03-17T15:30:26.474Z,17.50
2019-03-17T15:32:55.749Z,17.40
2019-03-17T15:35:25.065Z,17.30
2019-03-17T15:37:54.205Z,17.20
2019-03-17T15:40:23.423Z,17.30
2019-03-17T15:42:52.707Z,17.50
2019-03-17T15:45:24.072Z,17.50
2019-03-17T15:47:53.252Z,17.50
2019-03-17T15:50:24.716Z,17.50
2019-03-17T15:52:53.941Z,17.40
2019-03-17T15:55:24.288Z,17.40
2019-03-17T15:57:53.451Z,17.30
2019-03-17T16:00:26.616Z,17.20
2019-03-17T16:02:55.562Z,17.30
2019-03-17T16:05:24.731Z,17.40
2019-03-17T16:07:53.913Z,17.10
2019-03-17T16:10:30.233Z,16.90
2019-03-17T16:12:59.408Z,16.80
2019-03-17T16:15:28.657Z,16.80
2019-03-17T16:17:57.893Z,16.80
2019-03-17T16:20:27.769Z,16.70
2019-03-17T16:22:57.070Z,16.70
2019-03-17T16:25:39.033Z,16.70
2019-03-17T16:28:08.227Z,16.70
2019-03-17T16:30:37.445Z,16.40
2019-03-17T16:33:06.631Z,16.30
2019-03-17T16:35:35.814Z,16.20
2019-03-17T16:38:05.141Z,16.10
2019-03-17T16:40:35.496Z,15.90
2019-03-17T16:43:05.457Z,15.90
2019-03-17T16:45:34.708Z,15.90
2019-03-17T16:48:03.974Z,15.90
2019-03-17T16:50:33.128Z,15.70
2019-03-17T16:53:02.362Z,15.30
2019-03-17T16:55:31.563Z,14.60
2019-03-17T16:58:00.754Z,14.20
2019-03-17T17:00:30.106Z,13.90
2019-03-17T17:02:59.330Z,13.70
2019-03-17T17:05:28.579Z,13.50
2019-03-17T17:07:58.125Z,13.30
2019-03-17T17:10:28.387Z,13.00
2019-03-17T17:12:58.541Z,12.50
2019-03-17T17:15:30.469Z,12.00
2019-03-17T17:18:00.013Z,11.50
2019-03-17T17:20:33.439Z,11.20
2019-03-17T17:23:02.653Z,10.80
2019-03-17T17:25:31.851Z,10.40
2019-03-17T17:28:01.041Z,10.10
2019-03-17T17:30:30.345Z,10.00
2019-03-17T17:33:02.636Z,9.90
2019-03-17T17:35:31.881Z,9.80
2019-03-17T17:38:01.256Z,9.40
2019-03-17T17:40:30.604Z,9.00
2019-03-17T17:42:59.928Z,8.90
2019-03-17T17:45:29.360Z,8.60
2019-03-17T17:48:00.634Z,8.30
2019-03-17T17:50:31.454Z,8.20
2019-03-17T17:53:00.945Z,8.10
2019-03-17T17:55:33.143Z,8.10
2019-03-17T17:58:02.636Z,8.00
2019-03-17T18:00:33.817Z,8.00
2019-03-17T18:03:03.374Z,7.90
2019-03-17T18:05:33.534Z,7.80
2019-03-17T18:08:03.026Z,7.60
2019-03-17T18:10:32.490Z,7.60
2019-03-17T18:13:01.679Z,7.40
2019-03-17T18:15:34.438Z,7.30
2019-03-17T18:18:04.818Z,7.30
2019-03-17T18:20:34.117Z,7.20
2019-03-17T18:23:03.517Z,7.10
2019-03-17T18:25:33.956Z,7.10
2019-03-17T18:28:03.665Z,7.00
2019-03-17T18:30:34.515Z,7.10
2019-03-17T18:33:03.923Z,7.00
2019-03-17T18:35:33.463Z,6.80
2019-03-17T18:38:02.741Z,6.70
2019-03-17T18:40:32.073Z,6.40
2019-03-17T18:43:01.287Z,6.40
2019-03-17T18:45:33.477Z,6.40
2019-03-17T18:48:02.904Z,6.30
2019-03-17T18:50:32.143Z,6.20
2019-03-17T18:53:01.361Z,6.20
2019-03-17T18:55:30.617Z,6.10
2019-03-17T18:57:59.883Z,6.00
2019-03-17T19:00:29.131Z,5.80
2019-03-17T19:02:58.415Z,5.50
2019-03-17T19:05:27.791Z,5.40
2019-03-17T19:07:56.991Z,5.50
2019-03-17T19:10:26.155Z,5.60
2019-03-17T19:12:55.393Z,5.70
2019-03-17T19:15:24.607Z,5.70
2019-03-17T19:17:53.841Z,5.60
2019-03-17T19:20:24.481Z,5.50
2019-03-17T19:22:53.683Z,5.70
2019-03-17T19:25:26.043Z,5.70
2019-03-17T19:27:56.367Z,5.70
2019-03-17T19:30:25.589Z,5.70
2019-03-17T19:32:54.887Z,5.60
2019-03-17T19:35:24.187Z,5.40
2019-03-17T19:37:53.601Z,5.50
2019-03-17T19:40:24.028Z,5.50
2019-03-17T19:42:59.258Z,5.50
2019-03-17T19:45:24.305Z,5.50
2019-03-17T19:47:53.542Z,5.50
2019-03-17T19:50:23.120Z,5.50
2019-03-17T19:52:52.334Z,5.30
2019-03-17T19:55:21.800Z,5.30
2019-03-17T19:57:51.106Z,5.40
2019-03-17T20:00:21.192Z,5.40
2019-03-17T20:02:50.563Z,5.50
2019-03-17T20:05:22.840Z,5.50
2019-03-17T20:07:52.190Z,5.50
2019-03-17T20:10:23.485Z,5.50
2019-03-17T20:12:52.642Z,5.60
2019-03-17T20:15:22.022Z,5.60
2019-03-17T20:17:51.324Z,5.60
2019-03-17T20:20:20.632Z,5.50
2019-03-17T20:22:51.133Z,5.50
2019-03-17T20:25:20.944Z,5.40
2019-03-17T20:27:50.416Z,5.50
2019-03-17T20:30:20.256Z,5.50
2019-03-17T20:32:49.899Z,5.60
2019-03-17T20:35:19.235Z,5.60
2019-03-17T20:37:48.469Z,5.70
2019-03-17T20:40:18.789Z,5.70
2019-03-17T20:42:48.247Z,5.50
2019-03-17T20:45:20.242Z,5.40
2019-03-17T20:47:48.489Z,5.50
2019-03-17T20:50:18.689Z,5.50
2019-03-17T20:52:47.945Z,5.40
2019-03-17T20:55:17.360Z,5.30
2019-03-17T20:57:46.583Z,5.20
2019-03-17T21:00:16.513Z,5.30
2019-03-17T21:02:45.756Z,5.40
2019-03-17T21:05:14.904Z,5.30
2019-03-17T21:07:44.116Z,5.20
2019-03-17T21:10:14.288Z,5.20
2019-03-17T21:12:43.557Z,5.30
2019-03-17T21:15:20.296Z,5.30
2019-03-17T21:17:49.573Z,5.20
2019-03-17T21:20:21.117Z,5.30
2019-03-17T21:22:50.270Z,5.40
2019-03-17T21:25:19.535Z,5.40
2019-03-17T21:27:48.791Z,5.30
2019-03-17T21:30:20.796Z,5.10
2019-03-17T21:32:50.233Z,5.00
2019-03-17T21:35:19.618Z,4.90
2019-03-17T21:37:48.871Z,5.00
2019-03-17T21:40:18.160Z,4.90
2019-03-17T21:42:47.345Z,4.90
2019-03-17T21:45:16.599Z,4.90
2019-03-17T21:47:45.868Z,4.90
2019-03-17T21:50:19.222Z,4.90
2019-03-17T21:52:48.377Z,5.00
2019-03-17T21:55:18.589Z,5.00
2019-03-17T21:57:47.931Z,5.00
2019-03-17T22:00:20.856Z,5.00
2019-03-17T22:02:50.194Z,4.90
2019-03-17T22:05:19.395Z,4.80
2019-03-17T22:07:50.897Z,4.80
2019-03-17T22:10:20.537Z,4.80
2019-03-17T22:12:49.893Z,4.80
2019-03-17T22:15:19.155Z,4.80
2019-03-17T22:17:48.413Z,4.80
2019-03-17T22:20:17.918Z,4.90
2019-03-17T22:22:47.141Z,4.90
2019-03-17T22:25:16.741Z,4.80
2019-03-17T22:27:45.996Z,4.80
2019-03-17T22:30:22.384Z,4.80
2019-03-17T22:32:52.703Z,4.70
2019-03-17T22:35:21.921Z,4.70
2019-03-17T22:37:51.077Z,4.60
2019-03-17T22:40:20.292Z,4.50
2019-03-17T22:42:49.473Z,4.40
2019-03-17T22:45:18.652Z,4.30
2019-03-17T22:47:47.900Z,4.30
2019-03-17T22:50:20.118Z,4.30
2019-03-17T22:52:49.358Z,4.30
2019-03-17T22:55:18.562Z,4.20
2019-03-17T22:57:47.730Z,4.20
2019-03-17T23:00:26.355Z,4.10
2019-03-17T23:02:56.430Z,4.20
2019-03-17T23:05:25.771Z,4.10
2019-03-17T23:07:55.052Z,4.00
2019-03-17T23:10:24.262Z,4.10
2019-03-17T23:12:53.437Z,4.10
2019-03-17T23:15:22.588Z,4.00
2019-03-17T23:17:51.725Z,4.00
2019-03-17T23:20:21.032Z,4.10
2019-03-17T23:22:51.328Z,4.00
2019-03-17T23:25:20.762Z,3.90
2019-03-17T23:27:50.398Z,3.80
2019-03-17T23:30:21.694Z,3.80
2019-03-17T23:32:50.872Z,3.80
2019-03-17T23:35:21.583Z,3.80
2019-03-17T23:37:51.063Z,3.70
2019-03-17T23:40:20.382Z,3.80
2019-03-17T23:42:49.591Z,3.70
2019-03-17T23:45:18.787Z,3.70
2019-03-17T23:47:48.027Z,3.70
2019-03-17T23:50:17.210Z,3.70
2019-03-17T23:52:46.404Z,3.70
2019-03-17T23:55:15.619Z,3.70
2019-03-17T23:57:44.801Z,3.80
